sensor_id;sensor_type;location;lat;lon;timestamp;temperature;humidity
39079;DHT22;24829;49.208;12.080;2024-02-21T00:01:35;5.80;99.90
39079;DHT22;24829;49.208;12.080;2024-02-21T00:04:01;5.80;99.90
39079;DHT22;24829;49.208;12.080;2024-02-21T00:06:27;5.90;99.90
39079;DHT22;24829;49.208;12.080;2024-02-21T00:08:52;5.90;99.90
39079;DHT22;24829;49.208;12.080;2024-02-21T00:11:18;5.90;99.90
39079;DHT22;24829;49.208;12.080;2024-02-21T00:13:44;6.00;99.90
39079;DHT22;24829;49.208;12.080;2024-02-21T00:16:09;6.00;99.90
39079;DHT22;24829;49.208;12.080;2024-02-21T00:18:36;6.00;99.90
39079;DHT22;24829;49.208;12.080;2024-02-21T00:21:02;6.10;99.90
39079;DHT22;24829;49.208;12.080;2024-02-21T00:23:28;6.00;99.90
39079;DHT22;24829;49.208;12.080;2024-02-21T00:25:54;6.00;99.90
39079;DHT22;24829;49.208;12.080;2024-02-21T00:28:19;6.00;99.90
39079;DHT22;24829;49.208;12.080;2024-02-21T00:30:46;6.00;99.90
39079;DHT22;24829;49.208;12.080;2024-02-21T00:33:13;6.00;99.90
39079;DHT22;24829;49.208;12.080;2024-02-21T00:35:39;6.00;99.90
39079;DHT22;24829;49.208;12.080;2024-02-21T00:38:04;6.10;99.90
39079;DHT22;24829;49.208;12.080;2024-02-21T00:40:30;6.10;99.90
39079;DHT22;24829;49.208;12.080;2024-02-21T00:42:56;6.10;99.90
39079;DHT22;24829;49.208;12.080;2024-02-21T00:45:22;6.10;99.90
39079;DHT22;24829;49.208;12.080;2024-02-21T00:47:47;6.10;99.90
39079;DHT22;24829;49.208;12.080;2024-02-21T00:50:13;6.10;99.90
39079;DHT22;24829;49.208;12.080;2024-02-21T00:52:39;6.10;99.90
39079;DHT22;24829;49.208;12.080;2024-02-21T00:55:05;6.00;99.90
39079;DHT22;24829;49.208;12.080;2024-02-21T00:57:31;6.00;99.90
39079;DHT22;24829;49.208;12.080;2024-02-21T00:59:57;6.00;99.90
39079;DHT22;24829;49.208;12.080;2024-02-21T01:02:22;6.00;99.90
39079;DHT22;24829;49.208;12.080;2024-02-21T01:04:48;5.90;99.90
39079;DHT22;24829;49.208;12.080;2024-02-21T01:07:14;6.00;99.90
39079;DHT22;24829;49.208;12.080;2024-02-21T01:09:39;6.00;99.90
39079;DHT22;24829;49.208;12.080;2024-02-21T01:12:05;5.90;99.90
39079;DHT22;24829;49.208;12.080;2024-02-21T01:14:31;6.00;99.90
39079;DHT22;24829;49.208;12.080;2024-02-21T01:16:57;5.90;99.90
39079;DHT22;24829;49.208;12.080;2024-02-21T01:19:23;5.90;99.90
39079;DHT22;24829;49.208;12.080;2024-02-21T01:21:48;5.90;99.90
39079;DHT22;24829;49.208;12.080;2024-02-21T01:24:14;5.90;99.90
39079;DHT22;24829;49.208;12.080;2024-02-21T01:26:40;5.90;99.90
39079;DHT22;24829;49.208;12.080;2024-02-21T01:29:06;5.80;99.90
39079;DHT22;24829;49.208;12.080;2024-02-21T01:31:31;5.80;99.90
39079;DHT22;24829;49.208;12.080;2024-02-21T01:33:57;5.80;99.90
39079;DHT22;24829;49.208;12.080;2024-02-21T01:36:23;5.80;99.90
39079;DHT22;24829;49.208;12.080;2024-02-21T01:38:49;5.80;99.90
39079;DHT22;24829;49.208;12.080;2024-02-21T01:41:14;5.80;99.90
39079;DHT22;24829;49.208;12.080;2024-02-21T01:43:41;5.80;99.90
39079;DHT22;24829;49.208;12.080;2024-02-21T01:46:07;5.80;99.90
39079;DHT22;24829;49.208;12.080;2024-02-21T01:48:33;5.90;99.90
39079;DHT22;24829;49.208;12.080;2024-02-21T01:50:59;5.80;99.90
39079;DHT22;24829;49.208;12.080;2024-02-21T01:53:37;5.90;99.90
39079;DHT22;24829;49.208;12.080;2024-02-21T01:56:06;5.90;99.90
39079;DHT22;24829;49.208;12.080;2024-02-21T01:58:33;5.90;99.90
39079;DHT22;24829;49.208;12.080;2024-02-21T02:01:02;5.90;99.90
39079;DHT22;24829;49.208;12.080;2024-02-21T02:03:28;5.90;99.90
39079;DHT22;24829;49.208;12.080;2024-02-21T02:05:55;5.90;99.90
39079;DHT22;24829;49.208;12.080;2024-02-21T02:08:21;5.80;99.90
39079;DHT22;24829;49.208;12.080;2024-02-21T02:10:50;5.90;99.90
39079;DHT22;24829;49.208;12.080;2024-02-21T02:13:15;5.90;99.90
39079;DHT22;24829;49.208;12.080;2024-02-21T02:15:48;5.90;99.90
39079;DHT22;24829;49.208;12.080;2024-02-21T02:18:16;5.90;99.90
39079;DHT22;24829;49.208;12.080;2024-02-21T02:20:43;5.90;99.90
39079;DHT22;24829;49.208;12.080;2024-02-21T02:23:20;5.80;99.90
39079;DHT22;24829;49.208;12.080;2024-02-21T02:25:46;5.80;99.90
39079;DHT22;24829;49.208;12.080;2024-02-21T02:28:14;5.70;99.90
39079;DHT22;24829;49.208;12.080;2024-02-21T02:30:40;5.70;99.90
39079;DHT22;24829;49.208;12.080;2024-02-21T02:33:06;5.70;99.90
39079;DHT22;24829;49.208;12.080;2024-02-21T02:35:32;5.70;99.90
39079;DHT22;24829;49.208;12.080;2024-02-21T02:37:57;5.70;99.90
39079;DHT22;24829;49.208;12.080;2024-02-21T02:40:23;5.70;99.90
39079;DHT22;24829;49.208;12.080;2024-02-21T02:42:49;5.70;99.90
39079;DHT22;24829;49.208;12.080;2024-02-21T02:45:15;5.70;99.90
39079;DHT22;24829;49.208;12.080;2024-02-21T02:47:41;5.70;99.90
39079;DHT22;24829;49.208;12.080;2024-02-21T02:50:07;5.70;99.90
39079;DHT22;24829;49.208;12.080;2024-02-21T02:52:33;5.70;99.90
39079;DHT22;24829;49.208;12.080;2024-02-21T02:54:59;5.70;99.90
39079;DHT22;24829;49.208;12.080;2024-02-21T02:57:24;5.70;99.90
39079;DHT22;24829;49.208;12.080;2024-02-21T02:59:51;5.80;99.90
39079;DHT22;24829;49.208;12.080;2024-02-21T03:02:17;5.80;99.90
39079;DHT22;24829;49.208;12.080;2024-02-21T03:04:43;5.70;99.90
39079;DHT22;24829;49.208;12.080;2024-02-21T03:07:09;5.80;99.90
39079;DHT22;24829;49.208;12.080;2024-02-21T03:09:37;5.70;99.90
39079;DHT22;24829;49.208;12.080;2024-02-21T03:12:03;5.70;99.90
39079;DHT22;24829;49.208;12.080;2024-02-21T03:14:29;5.70;99.90
39079;DHT22;24829;49.208;12.080;2024-02-21T03:16:55;5.70;99.90
39079;DHT22;24829;49.208;12.080;2024-02-21T03:19:21;5.70;99.90
39079;DHT22;24829;49.208;12.080;2024-02-21T03:21:48;5.60;99.90
39079;DHT22;24829;49.208;12.080;2024-02-21T03:24:23;5.60;99.90
39079;DHT22;24829;49.208;12.080;2024-02-21T03:26:49;5.50;99.90
39079;DHT22;24829;49.208;12.080;2024-02-21T03:29:16;5.50;99.90
39079;DHT22;24829;49.208;12.080;2024-02-21T03:31:42;5.50;99.90
39079;DHT22;24829;49.208;12.080;2024-02-21T03:34:09;5.40;99.90
39079;DHT22;24829;49.208;12.080;2024-02-21T03:36:35;5.40;99.90
39079;DHT22;24829;49.208;12.080;2024-02-21T03:39:00;5.40;99.90
39079;DHT22;24829;49.208;12.080;2024-02-21T03:41:26;5.40;99.90
39079;DHT22;24829;49.208;12.080;2024-02-21T03:43:52;5.40;99.90
39079;DHT22;24829;49.208;12.080;2024-02-21T03:46:17;5.30;99.90
39079;DHT22;24829;49.208;12.080;2024-02-21T03:48:43;5.40;99.90
39079;DHT22;24829;49.208;12.080;2024-02-21T03:51:09;5.30;99.90
39079;DHT22;24829;49.208;12.080;2024-02-21T03:53:34;5.30;99.90
39079;DHT22;24829;49.208;12.080;2024-02-21T03:56:04;5.30;99.90
39079;DHT22;24829;49.208;12.080;2024-02-21T03:58:33;5.30;99.90
39079;DHT22;24829;49.208;12.080;2024-02-21T04:01:02;5.30;99.90
39079;DHT22;24829;49.208;12.080;2024-02-21T04:03:29;5.40;99.90
39079;DHT22;24829;49.208;12.080;2024-02-21T04:05:54;5.40;99.90
39079;DHT22;24829;49.208;12.080;2024-02-21T04:08:20;5.40;99.90
39079;DHT22;24829;49.208;12.080;2024-02-21T04:10:46;5.40;99.90
39079;DHT22;24829;49.208;12.080;2024-02-21T04:13:12;5.40;99.90
39079;DHT22;24829;49.208;12.080;2024-02-21T04:15:37;5.40;99.90
39079;DHT22;24829;49.208;12.080;2024-02-21T04:18:03;5.40;99.90
39079;DHT22;24829;49.208;12.080;2024-02-21T04:20:29;5.40;99.90
39079;DHT22;24829;49.208;12.080;2024-02-21T04:22:55;5.40;99.90
39079;DHT22;24829;49.208;12.080;2024-02-21T04:25:21;5.40;99.90
39079;DHT22;24829;49.208;12.080;2024-02-21T04:27:46;5.40;99.90
39079;DHT22;24829;49.208;12.080;2024-02-21T04:30:12;5.50;99.90
39079;DHT22;24829;49.208;12.080;2024-02-21T04:32:39;5.40;99.90
39079;DHT22;24829;49.208;12.080;2024-02-21T04:35:05;5.40;99.90
39079;DHT22;24829;49.208;12.080;2024-02-21T04:37:31;5.30;99.90
39079;DHT22;24829;49.208;12.080;2024-02-21T04:39:56;5.30;99.90
39079;DHT22;24829;49.208;12.080;2024-02-21T04:42:22;5.30;99.90
39079;DHT22;24829;49.208;12.080;2024-02-21T04:44:48;5.20;99.90
39079;DHT22;24829;49.208;12.080;2024-02-21T04:47:13;5.20;99.90
39079;DHT22;24829;49.208;12.080;2024-02-21T04:49:39;5.20;99.90
39079;DHT22;24829;49.208;12.080;2024-02-21T04:52:05;5.20;99.90
39079;DHT22;24829;49.208;12.080;2024-02-21T04:54:31;5.20;99.90
39079;DHT22;24829;49.208;12.080;2024-02-21T04:56:56;5.20;99.90
39079;DHT22;24829;49.208;12.080;2024-02-21T04:59:22;5.20;99.90
39079;DHT22;24829;49.208;12.080;2024-02-21T05:01:48;5.20;99.90
39079;DHT22;24829;49.208;12.080;2024-02-21T05:04:13;5.10;99.90
39079;DHT22;24829;49.208;12.080;2024-02-21T05:06:42;5.10;99.90
39079;DHT22;24829;49.208;12.080;2024-02-21T05:09:08;5.10;99.90
39079;DHT22;24829;49.208;12.080;2024-02-21T05:11:34;5.10;99.90
39079;DHT22;24829;49.208;12.080;2024-02-21T05:14:00;5.10;99.90
39079;DHT22;24829;49.208;12.080;2024-02-21T05:16:26;5.10;99.90
39079;DHT22;24829;49.208;12.080;2024-02-21T05:18:51;5.10;99.90
39079;DHT22;24829;49.208;12.080;2024-02-21T05:21:17;5.10;99.90
39079;DHT22;24829;49.208;12.080;2024-02-21T05:23:43;5.10;99.90
39079;DHT22;24829;49.208;12.080;2024-02-21T05:26:09;5.10;99.90
39079;DHT22;24829;49.208;12.080;2024-02-21T05:28:34;5.20;99.90
39079;DHT22;24829;49.208;12.080;2024-02-21T05:31:00;5.20;99.90
39079;DHT22;24829;49.208;12.080;2024-02-21T05:33:26;5.20;99.90
39079;DHT22;24829;49.208;12.080;2024-02-21T05:35:52;5.10;99.90
39079;DHT22;24829;49.208;12.080;2024-02-21T05:38:18;5.20;99.90
39079;DHT22;24829;49.208;12.080;2024-02-21T05:40:47;5.10;99.90
39079;DHT22;24829;49.208;12.080;2024-02-21T05:43:13;5.10;99.90
39079;DHT22;24829;49.208;12.080;2024-02-21T05:45:38;5.10;99.90
39079;DHT22;24829;49.208;12.080;2024-02-21T05:48:04;5.10;99.90
39079;DHT22;24829;49.208;12.080;2024-02-21T05:50:30;5.10;99.90
39079;DHT22;24829;49.208;12.080;2024-02-21T05:52:57;5.10;99.90
39079;DHT22;24829;49.208;12.080;2024-02-21T05:55:23;5.10;99.90
39079;DHT22;24829;49.208;12.080;2024-02-21T05:57:48;5.10;99.90
39079;DHT22;24829;49.208;12.080;2024-02-21T06:00:15;5.10;99.90
39079;DHT22;24829;49.208;12.080;2024-02-21T06:02:41;5.10;99.90
39079;DHT22;24829;49.208;12.080;2024-02-21T06:05:07;5.00;99.90
39079;DHT22;24829;49.208;12.080;2024-02-21T06:07:34;5.00;99.90
39079;DHT22;24829;49.208;12.080;2024-02-21T06:10:02;5.00;99.90
39079;DHT22;24829;49.208;12.080;2024-02-21T06:12:28;5.00;99.90
39079;DHT22;24829;49.208;12.080;2024-02-21T06:14:54;5.00;99.90
39079;DHT22;24829;49.208;12.080;2024-02-21T06:17:19;5.00;99.90
39079;DHT22;24829;49.208;12.080;2024-02-21T06:19:45;5.00;99.90
39079;DHT22;24829;49.208;12.080;2024-02-21T06:22:11;5.00;99.90
39079;DHT22;24829;49.208;12.080;2024-02-21T06:24:37;5.10;99.90
39079;DHT22;24829;49.208;12.080;2024-02-21T06:27:06;5.10;99.90
39079;DHT22;24829;49.208;12.080;2024-02-21T06:29:32;5.20;99.90
39079;DHT22;24829;49.208;12.080;2024-02-21T06:31:58;5.20;99.90
39079;DHT22;24829;49.208;12.080;2024-02-21T06:34:24;5.20;99.90
39079;DHT22;24829;49.208;12.080;2024-02-21T06:36:50;5.30;99.90
39079;DHT22;24829;49.208;12.080;2024-02-21T06:39:16;5.30;99.90
39079;DHT22;24829;49.208;12.080;2024-02-21T06:41:41;5.40;99.90
39079;DHT22;24829;49.208;12.080;2024-02-21T06:44:07;5.40;99.90
39079;DHT22;24829;49.208;12.080;2024-02-21T06:46:33;5.40;99.90
39079;DHT22;24829;49.208;12.080;2024-02-21T06:48:59;5.50;99.90
39079;DHT22;24829;49.208;12.080;2024-02-21T06:51:31;5.50;99.90
39079;DHT22;24829;49.208;12.080;2024-02-21T06:53:57;5.60;99.90
39079;DHT22;24829;49.208;12.080;2024-02-21T06:56:24;5.50;99.90
39079;DHT22;24829;49.208;12.080;2024-02-21T06:58:57;5.50;99.90
39079;DHT22;24829;49.208;12.080;2024-02-21T07:01:23;5.40;99.90
39079;DHT22;24829;49.208;12.080;2024-02-21T07:03:49;5.30;99.90
39079;DHT22;24829;49.208;12.080;2024-02-21T07:06:15;5.30;99.90
39079;DHT22;24829;49.208;12.080;2024-02-21T07:08:41;5.30;99.90
39079;DHT22;24829;49.208;12.080;2024-02-21T07:11:06;5.30;99.90
39079;DHT22;24829;49.208;12.080;2024-02-21T07:13:32;5.30;99.90
39079;DHT22;24829;49.208;12.080;2024-02-21T07:15:58;5.30;99.90
39079;DHT22;24829;49.208;12.080;2024-02-21T07:18:24;5.30;99.90
39079;DHT22;24829;49.208;12.080;2024-02-21T07:20:51;5.30;99.90
39079;DHT22;24829;49.208;12.080;2024-02-21T07:23:18;5.30;99.90
39079;DHT22;24829;49.208;12.080;2024-02-21T07:25:43;5.40;99.90
39079;DHT22;24829;49.208;12.080;2024-02-21T07:28:09;5.40;99.90
39079;DHT22;24829;49.208;12.080;2024-02-21T07:30:34;5.50;99.90
39079;DHT22;24829;49.208;12.080;2024-02-21T07:33:00;5.50;99.90
39079;DHT22;24829;49.208;12.080;2024-02-21T07:35:26;5.60;99.90
39079;DHT22;24829;49.208;12.080;2024-02-21T07:37:51;5.60;99.90
39079;DHT22;24829;49.208;12.080;2024-02-21T07:40:17;5.60;99.90
39079;DHT22;24829;49.208;12.080;2024-02-21T07:42:43;5.60;99.90
39079;DHT22;24829;49.208;12.080;2024-02-21T07:45:09;5.60;99.90
39079;DHT22;24829;49.208;12.080;2024-02-21T07:47:36;5.60;99.90
39079;DHT22;24829;49.208;12.080;2024-02-21T07:50:05;5.60;99.90
39079;DHT22;24829;49.208;12.080;2024-02-21T07:52:31;5.60;99.90
39079;DHT22;24829;49.208;12.080;2024-02-21T07:54:56;5.60;99.90
39079;DHT22;24829;49.208;12.080;2024-02-21T07:57:22;5.70;99.90
39079;DHT22;24829;49.208;12.080;2024-02-21T07:59:48;5.70;99.90
39079;DHT22;24829;49.208;12.080;2024-02-21T08:02:17;5.80;99.90
39079;DHT22;24829;49.208;12.080;2024-02-21T08:04:43;5.80;99.90
39079;DHT22;24829;49.208;12.080;2024-02-21T08:07:09;6.00;99.90
39079;DHT22;24829;49.208;12.080;2024-02-21T08:09:35;6.10;99.90
39079;DHT22;24829;49.208;12.080;2024-02-21T08:12:02;6.10;99.90
39079;DHT22;24829;49.208;12.080;2024-02-21T08:14:28;6.20;99.90
39079;DHT22;24829;49.208;12.080;2024-02-21T08:16:53;6.30;99.90
39079;DHT22;24829;49.208;12.080;2024-02-21T08:19:21;6.30;99.90
39079;DHT22;24829;49.208;12.080;2024-02-21T08:21:47;6.40;99.90
39079;DHT22;24829;49.208;12.080;2024-02-21T08:24:14;6.50;99.90
39079;DHT22;24829;49.208;12.080;2024-02-21T08:26:44;6.60;99.90
39079;DHT22;24829;49.208;12.080;2024-02-21T08:29:12;6.60;99.90
39079;DHT22;24829;49.208;12.080;2024-02-21T08:31:38;6.60;99.90
39079;DHT22;24829;49.208;12.080;2024-02-21T08:34:03;6.70;99.90
39079;DHT22;24829;49.208;12.080;2024-02-21T08:36:33;6.60;99.90
39079;DHT22;24829;49.208;12.080;2024-02-21T08:39:00;6.80;99.90
39079;DHT22;24829;49.208;12.080;2024-02-21T08:41:26;6.90;99.90
39079;DHT22;24829;49.208;12.080;2024-02-21T08:43:53;7.10;99.90
39079;DHT22;24829;49.208;12.080;2024-02-21T08:46:20;7.30;99.90
39079;DHT22;24829;49.208;12.080;2024-02-21T08:48:46;7.50;99.90
39079;DHT22;24829;49.208;12.080;2024-02-21T08:51:15;7.80;99.90
39079;DHT22;24829;49.208;12.080;2024-02-21T08:53:41;8.00;99.90
39079;DHT22;24829;49.208;12.080;2024-02-21T08:56:06;8.10;99.90
39079;DHT22;24829;49.208;12.080;2024-02-21T08:58:36;8.20;99.90
39079;DHT22;24829;49.208;12.080;2024-02-21T09:01:05;8.20;99.90
39079;DHT22;24829;49.208;12.080;2024-02-21T09:03:32;8.20;99.90
39079;DHT22;24829;49.208;12.080;2024-02-21T09:05:58;8.30;99.90
39079;DHT22;24829;49.208;12.080;2024-02-21T09:08:25;8.30;99.90
39079;DHT22;24829;49.208;12.080;2024-02-21T09:10:50;8.20;99.90
39079;DHT22;24829;49.208;12.080;2024-02-21T09:13:16;8.30;99.90
39079;DHT22;24829;49.208;12.080;2024-02-21T09:15:42;8.30;99.90
39079;DHT22;24829;49.208;12.080;2024-02-21T09:18:08;8.30;99.90
39079;DHT22;24829;49.208;12.080;2024-02-21T09:20:34;8.40;99.90
39079;DHT22;24829;49.208;12.080;2024-02-21T09:22:59;8.40;99.90
39079;DHT22;24829;49.208;12.080;2024-02-21T09:25:25;8.40;99.90
39079;DHT22;24829;49.208;12.080;2024-02-21T09:27:53;8.50;99.90
39079;DHT22;24829;49.208;12.080;2024-02-21T09:30:19;8.60;99.90
39079;DHT22;24829;49.208;12.080;2024-02-21T09:32:45;8.60;99.90
39079;DHT22;24829;49.208;12.080;2024-02-21T09:35:11;8.60;99.90
39079;DHT22;24829;49.208;12.080;2024-02-21T09:37:38;8.60;99.90
39079;DHT22;24829;49.208;12.080;2024-02-21T09:40:04;8.60;99.90
39079;DHT22;24829;49.208;12.080;2024-02-21T09:42:38;8.70;99.90
39079;DHT22;24829;49.208;12.080;2024-02-21T09:50:26;8.80;99.90
39079;DHT22;24829;49.208;12.080;2024-02-21T09:52:54;8.90;99.90
39079;DHT22;24829;49.208;12.080;2024-02-21T09:55:21;8.90;99.90
39079;DHT22;24829;49.208;12.080;2024-02-21T09:57:46;8.90;99.90
39079;DHT22;24829;49.208;12.080;2024-02-21T10:00:13;9.00;99.90
39079;DHT22;24829;49.208;12.080;2024-02-21T10:05:16;9.00;99.90
39079;DHT22;24829;49.208;12.080;2024-02-21T10:07:43;9.00;99.90
39079;DHT22;24829;49.208;12.080;2024-02-21T10:10:09;9.10;99.90
39079;DHT22;24829;49.208;12.080;2024-02-21T10:12:35;9.20;99.90
39079;DHT22;24829;49.208;12.080;2024-02-21T10:15:05;9.30;99.90
39079;DHT22;24829;49.208;12.080;2024-02-21T10:17:32;9.50;99.90
39079;DHT22;24829;49.208;12.080;2024-02-21T10:20:08;9.60;99.90
39079;DHT22;24829;49.208;12.080;2024-02-21T10:22:34;9.70;99.90
39079;DHT22;24829;49.208;12.080;2024-02-21T10:25:11;9.80;99.90
39079;DHT22;24829;49.208;12.080;2024-02-21T10:27:40;9.90;99.90
39079;DHT22;24829;49.208;12.080;2024-02-21T10:30:12;10.00;99.90
39079;DHT22;24829;49.208;12.080;2024-02-21T10:32:51;10.10;99.90
39079;DHT22;24829;49.208;12.080;2024-02-21T10:35:32;10.20;99.90
39079;DHT22;24829;49.208;12.080;2024-02-21T10:37:58;10.20;99.90
39079;DHT22;24829;49.208;12.080;2024-02-21T10:40:30;10.30;99.90
39079;DHT22;24829;49.208;12.080;2024-02-21T10:43:02;10.30;99.90
39079;DHT22;24829;49.208;12.080;2024-02-21T10:45:35;10.40;99.90
39079;DHT22;24829;49.208;12.080;2024-02-21T10:48:14;10.40;99.90
39079;DHT22;24829;49.208;12.080;2024-02-21T10:51:14;10.40;99.90
39079;DHT22;24829;49.208;12.080;2024-02-21T10:54:28;10.40;99.90
39079;DHT22;24829;49.208;12.080;2024-02-21T10:56:29;10.40;99.90
39079;DHT22;24829;49.208;12.080;2024-02-21T10:59:00;10.50;99.90
39079;DHT22;24829;49.208;12.080;2024-02-21T11:01:26;10.60;99.90
39079;DHT22;24829;49.208;12.080;2024-02-21T11:03:55;10.60;99.90
39079;DHT22;24829;49.208;12.080;2024-02-21T11:06:21;10.50;99.90
39079;DHT22;24829;49.208;12.080;2024-02-21T11:08:48;10.60;99.90
39079;DHT22;24829;49.208;12.080;2024-02-21T11:11:24;10.60;99.90
39079;DHT22;24829;49.208;12.080;2024-02-21T11:13:49;10.60;99.90
39079;DHT22;24829;49.208;12.080;2024-02-21T11:16:22;10.70;99.90
39079;DHT22;24829;49.208;12.080;2024-02-21T11:18:48;10.60;99.90
39079;DHT22;24829;49.208;12.080;2024-02-21T11:21:15;10.60;99.90
39079;DHT22;24829;49.208;12.080;2024-02-21T11:23:40;10.70;99.90
39079;DHT22;24829;49.208;12.080;2024-02-21T11:26:10;10.70;99.90
39079;DHT22;24829;49.208;12.080;2024-02-21T11:28:44;10.80;99.90
39079;DHT22;24829;49.208;12.080;2024-02-21T11:31:13;10.90;99.90
39079;DHT22;24829;49.208;12.080;2024-02-21T11:33:42;10.90;99.90
39079;DHT22;24829;49.208;12.080;2024-02-21T11:36:09;10.90;99.90
39079;DHT22;24829;49.208;12.080;2024-02-21T11:38:35;11.00;99.90
39079;DHT22;24829;49.208;12.080;2024-02-21T11:41:01;11.10;99.90
39079;DHT22;24829;49.208;12.080;2024-02-21T11:43:27;11.20;99.90
39079;DHT22;24829;49.208;12.080;2024-02-21T11:46:02;11.30;99.90
39079;DHT22;24829;49.208;12.080;2024-02-21T11:48:29;11.30;99.90
39079;DHT22;24829;49.208;12.080;2024-02-21T11:50:56;11.30;99.90
39079;DHT22;24829;49.208;12.080;2024-02-21T11:53:22;11.40;99.90
39079;DHT22;24829;49.208;12.080;2024-02-21T11:55:48;11.40;99.90
39079;DHT22;24829;49.208;12.080;2024-02-21T11:58:14;11.40;99.90
39079;DHT22;24829;49.208;12.080;2024-02-21T12:00:40;11.50;99.90
39079;DHT22;24829;49.208;12.080;2024-02-21T12:03:07;11.60;99.90
39079;DHT22;24829;49.208;12.080;2024-02-21T12:05:33;11.60;99.90
39079;DHT22;24829;49.208;12.080;2024-02-21T12:07:59;11.60;99.90
39079;DHT22;24829;49.208;12.080;2024-02-21T12:10:26;11.50;99.90
39079;DHT22;24829;49.208;12.080;2024-02-21T12:12:53;11.50;99.90
39079;DHT22;24829;49.208;12.080;2024-02-21T12:15:20;11.50;99.90
39079;DHT22;24829;49.208;12.080;2024-02-21T12:17:45;11.40;99.90
39079;DHT22;24829;49.208;12.080;2024-02-21T12:20:11;11.40;99.90
39079;DHT22;24829;49.208;12.080;2024-02-21T12:22:41;11.40;99.90
39079;DHT22;24829;49.208;12.080;2024-02-21T12:25:17;11.30;99.90
39079;DHT22;24829;49.208;12.080;2024-02-21T12:27:47;11.30;99.90
39079;DHT22;24829;49.208;12.080;2024-02-21T12:30:14;11.30;99.90
39079;DHT22;24829;49.208;12.080;2024-02-21T12:32:40;11.40;99.90
39079;DHT22;24829;49.208;12.080;2024-02-21T12:35:07;11.40;99.90
39079;DHT22;24829;49.208;12.080;2024-02-21T12:37:32;11.40;99.90
39079;DHT22;24829;49.208;12.080;2024-02-21T12:39:58;11.50;99.90
39079;DHT22;24829;49.208;12.080;2024-02-21T12:42:24;11.50;99.90
39079;DHT22;24829;49.208;12.080;2024-02-21T12:44:54;11.60;99.90
39079;DHT22;24829;49.208;12.080;2024-02-21T12:47:20;11.60;99.90
39079;DHT22;24829;49.208;12.080;2024-02-21T12:49:49;11.60;99.90
39079;DHT22;24829;49.208;12.080;2024-02-21T12:52:14;11.70;99.90
39079;DHT22;24829;49.208;12.080;2024-02-21T12:54:40;11.70;99.90
39079;DHT22;24829;49.208;12.080;2024-02-21T12:57:06;11.80;99.90
39079;DHT22;24829;49.208;12.080;2024-02-21T12:59:31;11.80;99.90
39079;DHT22;24829;49.208;12.080;2024-02-21T13:01:57;11.90;99.90
39079;DHT22;24829;49.208;12.080;2024-02-21T13:04:22;12.00;99.90
39079;DHT22;24829;49.208;12.080;2024-02-21T13:06:48;12.00;99.90
39079;DHT22;24829;49.208;12.080;2024-02-21T13:09:14;12.00;99.90
39079;DHT22;24829;49.208;12.080;2024-02-21T13:11:40;12.00;99.90
39079;DHT22;24829;49.208;12.080;2024-02-21T13:14:07;12.00;99.90
39079;DHT22;24829;49.208;12.080;2024-02-21T13:16:32;12.00;99.90
39079;DHT22;24829;49.208;12.080;2024-02-21T13:19:07;12.00;99.90
39079;DHT22;24829;49.208;12.080;2024-02-21T13:21:35;12.00;99.90
39079;DHT22;24829;49.208;12.080;2024-02-21T13:24:01;11.90;99.90
39079;DHT22;24829;49.208;12.080;2024-02-21T13:26:27;11.90;99.90
39079;DHT22;24829;49.208;12.080;2024-02-21T13:28:53;11.80;99.90
39079;DHT22;24829;49.208;12.080;2024-02-21T13:31:19;11.80;99.90
39079;DHT22;24829;49.208;12.080;2024-02-21T13:33:45;11.80;99.90
39079;DHT22;24829;49.208;12.080;2024-02-21T13:36:11;11.90;99.90
39079;DHT22;24829;49.208;12.080;2024-02-21T13:38:36;11.90;99.90
39079;DHT22;24829;49.208;12.080;2024-02-21T13:41:04;11.90;99.90
39079;DHT22;24829;49.208;12.080;2024-02-21T13:43:30;11.80;99.90
39079;DHT22;24829;49.208;12.080;2024-02-21T13:46:00;11.80;99.90
39079;DHT22;24829;49.208;12.080;2024-02-21T13:48:28;11.70;99.90
39079;DHT22;24829;49.208;12.080;2024-02-21T13:50:54;11.70;99.90
39079;DHT22;24829;49.208;12.080;2024-02-21T13:53:20;11.70;99.90
39079;DHT22;24829;49.208;12.080;2024-02-21T13:55:46;11.60;99.90
39079;DHT22;24829;49.208;12.080;2024-02-21T13:58:12;11.50;99.90
39079;DHT22;24829;49.208;12.080;2024-02-21T14:00:38;11.40;99.90
39079;DHT22;24829;49.208;12.080;2024-02-21T14:03:04;11.40;99.90
39079;DHT22;24829;49.208;12.080;2024-02-21T14:05:29;11.40;99.90
39079;DHT22;24829;49.208;12.080;2024-02-21T14:07:55;11.30;99.90
39079;DHT22;24829;49.208;12.080;2024-02-21T14:10:21;11.30;99.90
39079;DHT22;24829;49.208;12.080;2024-02-21T14:12:47;11.30;99.90
39079;DHT22;24829;49.208;12.080;2024-02-21T14:15:15;11.30;99.90
39079;DHT22;24829;49.208;12.080;2024-02-21T14:17:43;11.20;99.90
39079;DHT22;24829;49.208;12.080;2024-02-21T14:20:09;11.20;99.90
39079;DHT22;24829;49.208;12.080;2024-02-21T14:22:35;11.20;99.90
39079;DHT22;24829;49.208;12.080;2024-02-21T14:25:03;11.30;99.90
39079;DHT22;24829;49.208;12.080;2024-02-21T14:27:31;11.30;99.90
39079;DHT22;24829;49.208;12.080;2024-02-21T14:29:56;11.30;99.90
39079;DHT22;24829;49.208;12.080;2024-02-21T14:32:22;11.20;99.90
39079;DHT22;24829;49.208;12.080;2024-02-21T14:34:48;11.30;99.90
39079;DHT22;24829;49.208;12.080;2024-02-21T14:37:14;11.30;99.90
39079;DHT22;24829;49.208;12.080;2024-02-21T14:39:40;11.30;99.90
39079;DHT22;24829;49.208;12.080;2024-02-21T14:42:06;11.30;99.90
39079;DHT22;24829;49.208;12.080;2024-02-21T14:44:32;11.30;99.90
39079;DHT22;24829;49.208;12.080;2024-02-21T14:46:58;11.30;99.90
39079;DHT22;24829;49.208;12.080;2024-02-21T14:49:23;11.20;99.90
39079;DHT22;24829;49.208;12.080;2024-02-21T14:51:50;11.20;99.90
39079;DHT22;24829;49.208;12.080;2024-02-21T14:54:16;11.20;99.90
39079;DHT22;24829;49.208;12.080;2024-02-21T14:56:42;11.10;99.90
39079;DHT22;24829;49.208;12.080;2024-02-21T14:59:08;11.10;99.90
39079;DHT22;24829;49.208;12.080;2024-02-21T15:01:37;11.10;99.90
39079;DHT22;24829;49.208;12.080;2024-02-21T15:04:07;11.00;99.90
39079;DHT22;24829;49.208;12.080;2024-02-21T15:06:33;11.00;99.90
39079;DHT22;24829;49.208;12.080;2024-02-21T15:09:01;10.90;99.90
39079;DHT22;24829;49.208;12.080;2024-02-21T15:11:28;10.90;99.90
39079;DHT22;24829;49.208;12.080;2024-02-21T15:13:53;10.90;99.90
39079;DHT22;24829;49.208;12.080;2024-02-21T15:16:19;10.90;99.90
39079;DHT22;24829;49.208;12.080;2024-02-21T15:18:44;10.70;99.90
39079;DHT22;24829;49.208;12.080;2024-02-21T15:21:10;10.70;99.90
39079;DHT22;24829;49.208;12.080;2024-02-21T15:23:39;10.60;99.90
39079;DHT22;24829;49.208;12.080;2024-02-21T15:26:05;10.60;99.90
39079;DHT22;24829;49.208;12.080;2024-02-21T15:28:31;10.50;99.90
39079;DHT22;24829;49.208;12.080;2024-02-21T15:30:57;10.50;99.90